Disclaimer

Please do not use the information listed here in-flight or in-navigation, as they are not provided to us by the airports but are provided by volunteers, so they might be outdated.

Search


Regions


Airport information page

Radio informations:
Tower (TWR) - 118.0 MHz
PASTO RDO - 3488 MHz

Airport informations:
Latitude: 01° 23' 46.49" N
Longitude: 077° 17' 29.32" W
Elevation: 5951 feet - 1814 meters
Operating hours: Remarks
Operating agency: Civil government, landing fees and diplomatic clearance may be required
Timezone: UTC-5
Fuel: N/A

Runway information:
02/20 - 7585 x 130 feet< - >2312 x 40 meters

Recent METARs:
SKPS 211700Z 01007KT 9999 BKN018 20/17 A3020
SKPS 211700Z 01007KT 9999 BKN018 20/17 A3020
SKPS 211800Z 35007KT 9999 BKN020 20/17 A3018

Airport on the map: